Terminal Aerodrome Forecast
Issued by NWS

Home | Current Version | Previous Version | Text Only | Print | Product List | Glossary On
Versions: 1 2 3 4 5 6 7 8 9 10 11 12 13 14 15
000
FTUS46 KSEW 162320
TAFPAE
TAF
KPAE 162320Z 1700/1724 16010KT P6SM VCSH SCT020 BKN050
     FM170400 16008KT P6SM SCT035 SCT120 BKN200
     FM171000 14010KT P6SM VCSH SCT035 BKN120
     FM171400 14013KT P6SM VCSH SCT015 BKN030
     FM172100 15016G25KT P6SM -RA SCT015 OVC030=

USA.gov is the U.S. government's official web portal to all federal, state and local government web resources and services.